sensor_id;sensor_type;location;lat;lon;timestamp;P1;durP1;ratioP1;P2;durP2;ratioP2
12958;SDS011;6544;51.666;6.634;2022-12-07T00:00:51;21.93;;;17.43;;
12958;SDS011;6544;51.666;6.634;2022-12-07T00:03:18;27.70;;;19.23;;
12958;SDS011;6544;51.666;6.634;2022-12-07T00:05:44;26.53;;;20.83;;
12958;SDS011;6544;51.666;6.634;2022-12-07T00:08:11;21.60;;;18.37;;
12958;SDS011;6544;51.666;6.634;2022-12-07T00:10:46;24.33;;;19.13;;
12958;SDS011;6544;51.666;6.634;2022-12-07T00:13:12;22.53;;;18.70;;
12958;SDS011;6544;51.666;6.634;2022-12-07T00:15:39;23.97;;;20.20;;
12958;SDS011;6544;51.666;6.634;2022-12-07T00:18:06;24.50;;;19.93;;
12958;SDS011;6544;51.666;6.634;2022-12-07T00:20:33;25.93;;;18.67;;
12958;SDS011;6544;51.666;6.634;2022-12-07T00:23:00;25.97;;;19.90;;
12958;SDS011;6544;51.666;6.634;2022-12-07T00:25:27;27.83;;;20.70;;
12958;SDS011;6544;51.666;6.634;2022-12-07T00:27:55;28.30;;;20.10;;
12958;SDS011;6544;51.666;6.634;2022-12-07T00:30:22;26.20;;;20.90;;
12958;SDS011;6544;51.666;6.634;2022-12-07T00:32:49;25.43;;;20.17;;
12958;SDS011;6544;51.666;6.634;2022-12-07T00:35:16;23.27;;;20.07;;
12958;SDS011;6544;51.666;6.634;2022-12-07T00:37:43;23.37;;;20.60;;
12958;SDS011;6544;51.666;6.634;2022-12-07T00:40:10;24.20;;;19.83;;
12958;SDS011;6544;51.666;6.634;2022-12-07T00:42:38;24.47;;;19.73;;
12958;SDS011;6544;51.666;6.634;2022-12-07T00:45:07;26.50;;;19.90;;
12958;SDS011;6544;51.666;6.634;2022-12-07T00:47:34;23.27;;;19.30;;
12958;SDS011;6544;51.666;6.634;2022-12-07T00:50:01;24.67;;;19.40;;
12958;SDS011;6544;51.666;6.634;2022-12-07T00:52:28;22.50;;;19.53;;
12958;SDS011;6544;51.666;6.634;2022-12-07T00:54:55;21.83;;;18.97;;
12958;SDS011;6544;51.666;6.634;2022-12-07T00:57:22;23.03;;;18.50;;
12958;SDS011;6544;51.666;6.634;2022-12-07T00:59:49;23.17;;;18.43;;
12958;SDS011;6544;51.666;6.634;2022-12-07T01:02:21;25.40;;;18.57;;
12958;SDS011;6544;51.666;6.634;2022-12-07T01:04:48;23.53;;;17.90;;
12958;SDS011;6544;51.666;6.634;2022-12-07T01:07:15;20.77;;;17.97;;
12958;SDS011;6544;51.666;6.634;2022-12-07T01:09:42;21.57;;;17.87;;
12958;SDS011;6544;51.666;6.634;2022-12-07T01:12:09;21.37;;;18.57;;
12958;SDS011;6544;51.666;6.634;2022-12-07T01:14:36;21.43;;;18.07;;
12958;SDS011;6544;51.666;6.634;2022-12-07T01:17:03;20.73;;;17.23;;
12958;SDS011;6544;51.666;6.634;2022-12-07T01:19:31;22.20;;;17.47;;
12958;SDS011;6544;51.666;6.634;2022-12-07T01:21:58;20.90;;;16.87;;
12958;SDS011;6544;51.666;6.634;2022-12-07T01:24:25;26.63;;;17.50;;
12958;SDS011;6544;51.666;6.634;2022-12-07T01:26:52;22.80;;;18.90;;
12958;SDS011;6544;51.666;6.634;2022-12-07T01:29:18;23.63;;;17.00;;
12958;SDS011;6544;51.666;6.634;2022-12-07T01:31:47;18.80;;;16.77;;
12958;SDS011;6544;51.666;6.634;2022-12-07T01:34:15;21.60;;;17.87;;
12958;SDS011;6544;51.666;6.634;2022-12-07T01:36:43;20.90;;;17.50;;
12958;SDS011;6544;51.666;6.634;2022-12-07T01:39:10;20.37;;;17.17;;
12958;SDS011;6544;51.666;6.634;2022-12-07T01:41:38;21.23;;;16.00;;
12958;SDS011;6544;51.666;6.634;2022-12-07T01:44:15;20.07;;;16.50;;
12958;SDS011;6544;51.666;6.634;2022-12-07T01:46:45;21.77;;;16.70;;
12958;SDS011;6544;51.666;6.634;2022-12-07T01:49:14;19.00;;;16.10;;
12958;SDS011;6544;51.666;6.634;2022-12-07T01:51:50;19.90;;;16.40;;
12958;SDS011;6544;51.666;6.634;2022-12-07T01:54:23;18.60;;;16.60;;
12958;SDS011;6544;51.666;6.634;2022-12-07T01:56:52;21.27;;;16.33;;
12958;SDS011;6544;51.666;6.634;2022-12-07T01:59:21;21.47;;;16.13;;
12958;SDS011;6544;51.666;6.634;2022-12-07T02:01:51;20.90;;;15.43;;
12958;SDS011;6544;51.666;6.634;2022-12-07T02:04:18;20.47;;;15.57;;
12958;SDS011;6544;51.666;6.634;2022-12-07T02:06:45;20.23;;;14.43;;
12958;SDS011;6544;51.666;6.634;2022-12-07T02:09:15;17.40;;;14.63;;
12958;SDS011;6544;51.666;6.634;2022-12-07T02:11:42;18.87;;;15.20;;
12958;SDS011;6544;51.666;6.634;2022-12-07T02:14:09;17.43;;;15.13;;
12958;SDS011;6544;51.666;6.634;2022-12-07T02:16:38;23.80;;;14.83;;
12958;SDS011;6544;51.666;6.634;2022-12-07T02:19:24;20.43;;;14.80;;
12958;SDS011;6544;51.666;6.634;2022-12-07T02:22:33;20.33;;;15.47;;
12958;SDS011;6544;51.666;6.634;2022-12-07T02:25:21;20.47;;;14.80;;
12958;SDS011;6544;51.666;6.634;2022-12-07T02:27:57;19.60;;;15.13;;
12958;SDS011;6544;51.666;6.634;2022-12-07T02:30:32;19.47;;;14.63;;
12958;SDS011;6544;51.666;6.634;2022-12-07T02:33:10;18.90;;;15.33;;
12958;SDS011;6544;51.666;6.634;2022-12-07T02:35:42;20.10;;;16.13;;
12958;SDS011;6544;51.666;6.634;2022-12-07T02:38:14;19.13;;;15.73;;
12958;SDS011;6544;51.666;6.634;2022-12-07T02:40:47;21.07;;;16.03;;
12958;SDS011;6544;51.666;6.634;2022-12-07T02:43:17;17.77;;;15.70;;
12958;SDS011;6544;51.666;6.634;2022-12-07T02:45:51;18.47;;;15.90;;
12958;SDS011;6544;51.666;6.634;2022-12-07T02:48:20;18.97;;;16.60;;
12958;SDS011;6544;51.666;6.634;2022-12-07T02:50:48;24.03;;;17.03;;
12958;SDS011;6544;51.666;6.634;2022-12-07T02:53:28;22.40;;;16.90;;
12958;SDS011;6544;51.666;6.634;2022-12-07T02:55:59;20.90;;;15.87;;
12958;SDS011;6544;51.666;6.634;2022-12-07T02:58:33;19.53;;;16.30;;
12958;SDS011;6544;51.666;6.634;2022-12-07T03:01:15;19.23;;;15.80;;
12958;SDS011;6544;51.666;6.634;2022-12-07T03:03:54;18.07;;;15.00;;
12958;SDS011;6544;51.666;6.634;2022-12-07T03:06:34;20.03;;;14.83;;
12958;SDS011;6544;51.666;6.634;2022-12-07T03:09:09;18.60;;;14.53;;
12958;SDS011;6544;51.666;6.634;2022-12-07T03:11:42;20.33;;;14.20;;
12958;SDS011;6544;51.666;6.634;2022-12-07T03:14:15;20.33;;;15.40;;
12958;SDS011;6544;51.666;6.634;2022-12-07T03:16:49;19.70;;;15.00;;
12958;SDS011;6544;51.666;6.634;2022-12-07T03:19:20;22.73;;;15.37;;
12958;SDS011;6544;51.666;6.634;2022-12-07T03:21:49;20.77;;;14.93;;
12958;SDS011;6544;51.666;6.634;2022-12-07T03:24:22;19.77;;;14.97;;
12958;SDS011;6544;51.666;6.634;2022-12-07T03:26:55;18.53;;;13.63;;
12958;SDS011;6544;51.666;6.634;2022-12-07T03:29:28;17.07;;;13.67;;
12958;SDS011;6544;51.666;6.634;2022-12-07T03:32:02;18.67;;;13.83;;
12958;SDS011;6544;51.666;6.634;2022-12-07T03:34:32;17.50;;;13.83;;
12958;SDS011;6544;51.666;6.634;2022-12-07T03:37:03;18.03;;;14.10;;
12958;SDS011;6544;51.666;6.634;2022-12-07T03:39:34;21.77;;;15.27;;
12958;SDS011;6544;51.666;6.634;2022-12-07T03:42:05;19.93;;;14.23;;
12958;SDS011;6544;51.666;6.634;2022-12-07T03:44:34;21.47;;;15.03;;
12958;SDS011;6544;51.666;6.634;2022-12-07T03:47:05;17.20;;;14.50;;
12958;SDS011;6544;51.666;6.634;2022-12-07T03:49:40;18.80;;;14.70;;
12958;SDS011;6544;51.666;6.634;2022-12-07T03:52:12;17.90;;;13.87;;
12958;SDS011;6544;51.666;6.634;2022-12-07T03:54:49;21.00;;;13.90;;
12958;SDS011;6544;51.666;6.634;2022-12-07T03:57:22;19.57;;;13.67;;
12958;SDS011;6544;51.666;6.634;2022-12-07T03:59:51;19.63;;;14.63;;
12958;SDS011;6544;51.666;6.634;2022-12-07T04:02:22;21.23;;;14.63;;
12958;SDS011;6544;51.666;6.634;2022-12-07T04:04:51;19.17;;;14.33;;
12958;SDS011;6544;51.666;6.634;2022-12-07T04:07:18;19.70;;;14.83;;
12958;SDS011;6544;51.666;6.634;2022-12-07T04:09:45;20.17;;;14.10;;
12958;SDS011;6544;51.666;6.634;2022-12-07T04:12:12;23.63;;;14.43;;
12958;SDS011;6544;51.666;6.634;2022-12-07T04:14:39;18.13;;;14.00;;
12958;SDS011;6544;51.666;6.634;2022-12-07T04:17:06;19.93;;;13.97;;
12958;SDS011;6544;51.666;6.634;2022-12-07T04:19:34;16.70;;;13.57;;
12958;SDS011;6544;51.666;6.634;2022-12-07T04:22:01;19.17;;;14.40;;
12958;SDS011;6544;51.666;6.634;2022-12-07T04:24:29;19.20;;;13.67;;
12958;SDS011;6544;51.666;6.634;2022-12-07T04:26:57;20.07;;;14.67;;
12958;SDS011;6544;51.666;6.634;2022-12-07T04:29:24;22.97;;;13.63;;
12958;SDS011;6544;51.666;6.634;2022-12-07T04:31:51;18.53;;;13.80;;
12958;SDS011;6544;51.666;6.634;2022-12-07T04:34:19;19.53;;;13.87;;
12958;SDS011;6544;51.666;6.634;2022-12-07T04:36:48;19.17;;;14.07;;
12958;SDS011;6544;51.666;6.634;2022-12-07T04:39:17;20.43;;;13.87;;
12958;SDS011;6544;51.666;6.634;2022-12-07T04:41:46;20.03;;;13.20;;
12958;SDS011;6544;51.666;6.634;2022-12-07T04:44:14;19.80;;;13.70;;
12958;SDS011;6544;51.666;6.634;2022-12-07T04:46:41;17.30;;;13.50;;
12958;SDS011;6544;51.666;6.634;2022-12-07T04:49:09;17.77;;;12.90;;
12958;SDS011;6544;51.666;6.634;2022-12-07T04:51:36;19.57;;;13.27;;
12958;SDS011;6544;51.666;6.634;2022-12-07T04:54:04;17.93;;;13.33;;
12958;SDS011;6544;51.666;6.634;2022-12-07T04:56:31;19.50;;;12.43;;
12958;SDS011;6544;51.666;6.634;2022-12-07T04:59:00;20.53;;;12.70;;
12958;SDS011;6544;51.666;6.634;2022-12-07T05:01:27;15.47;;;12.20;;
12958;SDS011;6544;51.666;6.634;2022-12-07T05:03:54;18.30;;;12.47;;
12958;SDS011;6544;51.666;6.634;2022-12-07T05:06:21;19.17;;;13.57;;
12958;SDS011;6544;51.666;6.634;2022-12-07T05:08:48;22.53;;;13.97;;
12958;SDS011;6544;51.666;6.634;2022-12-07T05:11:17;20.17;;;13.60;;
12958;SDS011;6544;51.666;6.634;2022-12-07T05:13:58;19.63;;;13.20;;
12958;SDS011;6544;51.666;6.634;2022-12-07T05:16:25;20.47;;;12.93;;
12958;SDS011;6544;51.666;6.634;2022-12-07T05:18:52;16.17;;;12.47;;
12958;SDS011;6544;51.666;6.634;2022-12-07T05:21:19;18.73;;;12.23;;
12958;SDS011;6544;51.666;6.634;2022-12-07T05:23:46;15.80;;;11.87;;
12958;SDS011;6544;51.666;6.634;2022-12-07T05:26:13;15.80;;;11.53;;
12958;SDS011;6544;51.666;6.634;2022-12-07T05:28:41;22.07;;;12.50;;
12958;SDS011;6544;51.666;6.634;2022-12-07T05:31:08;14.70;;;10.43;;
12958;SDS011;6544;51.666;6.634;2022-12-07T05:33:35;15.83;;;11.30;;
12958;SDS011;6544;51.666;6.634;2022-12-07T05:36:02;15.20;;;10.73;;
12958;SDS011;6544;51.666;6.634;2022-12-07T05:38:30;18.30;;;11.60;;
12958;SDS011;6544;51.666;6.634;2022-12-07T05:40:59;16.23;;;11.17;;
12958;SDS011;6544;51.666;6.634;2022-12-07T05:43:27;19.57;;;11.70;;
12958;SDS011;6544;51.666;6.634;2022-12-07T05:45:55;16.83;;;11.77;;
12958;SDS011;6544;51.666;6.634;2022-12-07T05:48:22;18.87;;;11.77;;
12958;SDS011;6544;51.666;6.634;2022-12-07T05:50:50;14.87;;;11.97;;
12958;SDS011;6544;51.666;6.634;2022-12-07T05:53:17;17.13;;;11.57;;
12958;SDS011;6544;51.666;6.634;2022-12-07T05:55:45;18.60;;;12.33;;
12958;SDS011;6544;51.666;6.634;2022-12-07T05:58:11;24.53;;;12.70;;
12958;SDS011;6544;51.666;6.634;2022-12-07T06:00:57;20.33;;;13.17;;
12958;SDS011;6544;51.666;6.634;2022-12-07T06:03:24;18.77;;;13.93;;
12958;SDS011;6544;51.666;6.634;2022-12-07T06:05:51;21.20;;;13.40;;
12958;SDS011;6544;51.666;6.634;2022-12-07T06:08:18;21.83;;;13.13;;
12958;SDS011;6544;51.666;6.634;2022-12-07T06:10:46;21.93;;;13.27;;
12958;SDS011;6544;51.666;6.634;2022-12-07T06:13:35;22.60;;;13.23;;
12958;SDS011;6544;51.666;6.634;2022-12-07T06:16:03;17.73;;;12.77;;
12958;SDS011;6544;51.666;6.634;2022-12-07T06:18:30;19.37;;;12.47;;
12958;SDS011;6544;51.666;6.634;2022-12-07T06:20:57;17.70;;;12.83;;
12958;SDS011;6544;51.666;6.634;2022-12-07T06:23:24;18.47;;;12.17;;
12958;SDS011;6544;51.666;6.634;2022-12-07T06:25:51;16.60;;;12.37;;
12958;SDS011;6544;51.666;6.634;2022-12-07T06:28:18;19.47;;;12.37;;
12958;SDS011;6544;51.666;6.634;2022-12-07T06:30:44;18.00;;;11.93;;
12958;SDS011;6544;51.666;6.634;2022-12-07T06:33:13;18.33;;;13.23;;
12958;SDS011;6544;51.666;6.634;2022-12-07T06:35:39;20.60;;;11.93;;
12958;SDS011;6544;51.666;6.634;2022-12-07T06:38:07;15.27;;;11.70;;
12958;SDS011;6544;51.666;6.634;2022-12-07T06:40:34;17.20;;;11.17;;
12958;SDS011;6544;51.666;6.634;2022-12-07T06:43:00;19.53;;;11.63;;
12958;SDS011;6544;51.666;6.634;2022-12-07T06:45:27;14.17;;;10.77;;
12958;SDS011;6544;51.666;6.634;2022-12-07T06:47:54;16.93;;;10.27;;
12958;SDS011;6544;51.666;6.634;2022-12-07T06:50:25;15.63;;;10.33;;
12958;SDS011;6544;51.666;6.634;2022-12-07T06:52:52;15.10;;;10.47;;
12958;SDS011;6544;51.666;6.634;2022-12-07T06:55:19;15.23;;;10.77;;
12958;SDS011;6544;51.666;6.634;2022-12-07T06:57:46;19.30;;;10.57;;
12958;SDS011;6544;51.666;6.634;2022-12-07T07:00:13;16.07;;;11.30;;
12958;SDS011;6544;51.666;6.634;2022-12-07T07:02:41;13.63;;;10.87;;
12958;SDS011;6544;51.666;6.634;2022-12-07T07:05:08;15.53;;;10.20;;
12958;SDS011;6544;51.666;6.634;2022-12-07T07:07:36;16.77;;;11.43;;
12958;SDS011;6544;51.666;6.634;2022-12-07T07:10:04;16.63;;;10.50;;
12958;SDS011;6544;51.666;6.634;2022-12-07T07:12:32;17.07;;;9.97;;
12958;SDS011;6544;51.666;6.634;2022-12-07T07:14:59;15.67;;;10.57;;
12958;SDS011;6544;51.666;6.634;2022-12-07T07:17:25;14.10;;;10.47;;
12958;SDS011;6544;51.666;6.634;2022-12-07T07:19:52;14.13;;;10.07;;
12958;SDS011;6544;51.666;6.634;2022-12-07T07:22:20;14.87;;;10.30;;
12958;SDS011;6544;51.666;6.634;2022-12-07T07:24:48;15.20;;;10.23;;
12958;SDS011;6544;51.666;6.634;2022-12-07T07:27:15;14.67;;;9.67;;
12958;SDS011;6544;51.666;6.634;2022-12-07T07:29:42;13.37;;;8.60;;
12958;SDS011;6544;51.666;6.634;2022-12-07T07:32:09;12.50;;;9.90;;
12958;SDS011;6544;51.666;6.634;2022-12-07T07:34:36;13.50;;;9.53;;
12958;SDS011;6544;51.666;6.634;2022-12-07T07:37:02;12.17;;;9.00;;
12958;SDS011;6544;51.666;6.634;2022-12-07T07:39:29;14.07;;;9.43;;
12958;SDS011;6544;51.666;6.634;2022-12-07T07:42:02;13.20;;;8.43;;
12958;SDS011;6544;51.666;6.634;2022-12-07T07:44:29;14.07;;;8.50;;
12958;SDS011;6544;51.666;6.634;2022-12-07T07:46:56;13.47;;;8.93;;
12958;SDS011;6544;51.666;6.634;2022-12-07T07:49:23;13.10;;;8.57;;
12958;SDS011;6544;51.666;6.634;2022-12-07T07:51:50;14.70;;;8.80;;
12958;SDS011;6544;51.666;6.634;2022-12-07T07:54:17;14.27;;;8.67;;
12958;SDS011;6544;51.666;6.634;2022-12-07T07:56:44;12.53;;;8.77;;
12958;SDS011;6544;51.666;6.634;2022-12-07T07:59:12;14.50;;;8.30;;
12958;SDS011;6544;51.666;6.634;2022-12-07T08:01:40;13.87;;;8.80;;
12958;SDS011;6544;51.666;6.634;2022-12-07T08:04:07;12.57;;;8.63;;
12958;SDS011;6544;51.666;6.634;2022-12-07T08:06:34;15.27;;;8.40;;
12958;SDS011;6544;51.666;6.634;2022-12-07T08:09:00;13.40;;;8.17;;
12958;SDS011;6544;51.666;6.634;2022-12-07T08:11:30;17.10;;;7.87;;
12958;SDS011;6544;51.666;6.634;2022-12-07T08:13:57;14.23;;;8.50;;
12958;SDS011;6544;51.666;6.634;2022-12-07T08:16:25;13.93;;;7.60;;
12958;SDS011;6544;51.666;6.634;2022-12-07T08:18:52;18.57;;;15.50;;
12958;SDS011;6544;51.666;6.634;2022-12-07T08:21:19;18.57;;;12.73;;
12958;SDS011;6544;51.666;6.634;2022-12-07T08:23:46;19.07;;;10.23;;
12958;SDS011;6544;51.666;6.634;2022-12-07T08:26:13;17.53;;;12.60;;
12958;SDS011;6544;51.666;6.634;2022-12-07T08:28:42;18.87;;;14.10;;
12958;SDS011;6544;51.666;6.634;2022-12-07T08:31:10;19.60;;;11.30;;
12958;SDS011;6544;51.666;6.634;2022-12-07T08:33:44;13.17;;;9.43;;
12958;SDS011;6544;51.666;6.634;2022-12-07T08:36:11;16.43;;;8.90;;
12958;SDS011;6544;51.666;6.634;2022-12-07T08:38:39;12.33;;;8.47;;
12958;SDS011;6544;51.666;6.634;2022-12-07T08:41:07;10.80;;;7.87;;
12958;SDS011;6544;51.666;6.634;2022-12-07T08:43:35;13.63;;;7.67;;
12958;SDS011;6544;51.666;6.634;2022-12-07T08:46:09;13.03;;;7.17;;
12958;SDS011;6544;51.666;6.634;2022-12-07T08:48:40;15.83;;;6.97;;
12958;SDS011;6544;51.666;6.634;2022-12-07T08:51:13;9.10;;;6.53;;
12958;SDS011;6544;51.666;6.634;2022-12-07T08:53:40;10.37;;;6.60;;
12958;SDS011;6544;51.666;6.634;2022-12-07T08:56:08;11.67;;;6.37;;
12958;SDS011;6544;51.666;6.634;2022-12-07T08:58:36;16.60;;;6.57;;
12958;SDS011;6544;51.666;6.634;2022-12-07T09:01:05;14.60;;;6.60;;
12958;SDS011;6544;51.666;6.634;2022-12-07T09:03:32;12.30;;;6.73;;
12958;SDS011;6544;51.666;6.634;2022-12-07T09:06:00;14.47;;;6.77;;
12958;SDS011;6544;51.666;6.634;2022-12-07T09:08:29;12.77;;;6.97;;
12958;SDS011;6544;51.666;6.634;2022-12-07T09:10:59;9.90;;;6.63;;
12958;SDS011;6544;51.666;6.634;2022-12-07T09:13:26;12.20;;;6.43;;
12958;SDS011;6544;51.666;6.634;2022-12-07T09:15:52;12.03;;;6.73;;
12958;SDS011;6544;51.666;6.634;2022-12-07T09:18:19;9.27;;;5.60;;
12958;SDS011;6544;51.666;6.634;2022-12-07T09:20:46;9.80;;;5.97;;
12958;SDS011;6544;51.666;6.634;2022-12-07T09:23:16;11.27;;;6.30;;
12958;SDS011;6544;51.666;6.634;2022-12-07T09:25:43;11.77;;;7.10;;
12958;SDS011;6544;51.666;6.634;2022-12-07T09:28:10;14.50;;;6.10;;
12958;SDS011;6544;51.666;6.634;2022-12-07T09:30:37;11.20;;;6.63;;
12958;SDS011;6544;51.666;6.634;2022-12-07T09:33:04;12.47;;;6.40;;
12958;SDS011;6544;51.666;6.634;2022-12-07T09:35:30;12.97;;;6.80;;
12958;SDS011;6544;51.666;6.634;2022-12-07T09:37:57;14.57;;;7.00;;
12958;SDS011;6544;51.666;6.634;2022-12-07T09:40:27;8.97;;;6.70;;
12958;SDS011;6544;51.666;6.634;2022-12-07T09:42:54;12.07;;;6.60;;
12958;SDS011;6544;51.666;6.634;2022-12-07T09:45:22;12.17;;;6.10;;
12958;SDS011;6544;51.666;6.634;2022-12-07T09:47:52;10.23;;;5.90;;
12958;SDS011;6544;51.666;6.634;2022-12-07T09:50:20;9.27;;;5.70;;
12958;SDS011;6544;51.666;6.634;2022-12-07T09:52:49;8.73;;;5.73;;
12958;SDS011;6544;51.666;6.634;2022-12-07T09:55:19;13.40;;;6.30;;
12958;SDS011;6544;51.666;6.634;2022-12-07T09:57:51;13.10;;;6.47;;
12958;SDS011;6544;51.666;6.634;2022-12-07T10:00:19;9.30;;;5.63;;
12958;SDS011;6544;51.666;6.634;2022-12-07T10:02:49;9.23;;;5.30;;
12958;SDS011;6544;51.666;6.634;2022-12-07T10:05:22;7.97;;;4.83;;
12958;SDS011;6544;51.666;6.634;2022-12-07T10:07:51;11.13;;;5.53;;
12958;SDS011;6544;51.666;6.634;2022-12-07T10:10:19;9.70;;;4.70;;
12958;SDS011;6544;51.666;6.634;2022-12-07T10:12:56;11.13;;;4.17;;
12958;SDS011;6544;51.666;6.634;2022-12-07T10:15:39;13.13;;;4.43;;
12958;SDS011;6544;51.666;6.634;2022-12-07T10:18:17;9.47;;;4.13;;
12958;SDS011;6544;51.666;6.634;2022-12-07T10:20:46;9.43;;;4.33;;
12958;SDS011;6544;51.666;6.634;2022-12-07T10:23:15;10.00;;;4.23;;
12958;SDS011;6544;51.666;6.634;2022-12-07T10:25:43;8.93;;;4.07;;
12958;SDS011;6544;51.666;6.634;2022-12-07T10:28:13;8.13;;;4.47;;
12958;SDS011;6544;51.666;6.634;2022-12-07T10:30:49;12.23;;;4.28;;
12958;SDS011;6544;51.666;6.634;2022-12-07T10:33:31;9.87;;;4.00;;
12958;SDS011;6544;51.666;6.634;2022-12-07T10:36:01;9.30;;;3.95;;
12958;SDS011;6544;51.666;6.634;2022-12-07T10:38:44;10.90;;;4.20;;
12958;SDS011;6544;51.666;6.634;2022-12-07T10:41:12;7.40;;;3.60;;
12958;SDS011;6544;51.666;6.634;2022-12-07T10:43:50;12.13;;;3.73;;
12958;SDS011;6544;51.666;6.634;2022-12-07T10:49:29;7.43;;;3.50;;
12958;SDS011;6544;51.666;6.634;2022-12-07T10:52:32;8.80;;;3.13;;
12958;SDS011;6544;51.666;6.634;2022-12-07T10:55:13;7.32;;;3.40;;
12958;SDS011;6544;51.666;6.634;2022-12-07T13:19:55;10.10;;;3.43;;
12958;SDS011;6544;51.666;6.634;2022-12-07T13:25:31;7.83;;;3.27;;
12958;SDS011;6544;51.666;6.634;2022-12-07T13:28:08;15.07;;;3.97;;
12958;SDS011;6544;51.666;6.634;2022-12-07T13:30:43;14.23;;;5.32;;
12958;SDS011;6544;51.666;6.634;2022-12-07T13:33:14;6.82;;;3.50;;
12958;SDS011;6544;51.666;6.634;2022-12-07T13:35:45;9.10;;;3.00;;
12958;SDS011;6544;51.666;6.634;2022-12-07T13:38:16;8.53;;;3.50;;
12958;SDS011;6544;51.666;6.634;2022-12-07T13:41:04;7.93;;;3.57;;
12958;SDS011;6544;51.666;6.634;2022-12-07T13:43:42;11.20;;;3.35;;
12958;SDS011;6544;51.666;6.634;2022-12-07T13:46:10;12.00;;;3.90;;
12958;SDS011;6544;51.666;6.634;2022-12-07T13:48:43;10.27;;;6.03;;
12958;SDS011;6544;51.666;6.634;2022-12-07T13:51:18;7.00;;;3.65;;
12958;SDS011;6544;51.666;6.634;2022-12-07T13:53:48;10.17;;;3.70;;
12958;SDS011;6544;51.666;6.634;2022-12-07T13:56:17;9.83;;;3.70;;
12958;SDS011;6544;51.666;6.634;2022-12-07T13:58:44;10.00;;;3.30;;
12958;SDS011;6544;51.666;6.634;2022-12-07T14:01:12;8.57;;;3.43;;
12958;SDS011;6544;51.666;6.634;2022-12-07T14:03:39;6.90;;;3.03;;
12958;SDS011;6544;51.666;6.634;2022-12-07T14:06:17;9.73;;;3.00;;
12958;SDS011;6544;51.666;6.634;2022-12-07T14:09:06;8.30;;;3.30;;
12958;SDS011;6544;51.666;6.634;2022-12-07T14:11:34;10.43;;;3.50;;
12958;SDS011;6544;51.666;6.634;2022-12-07T14:14:03;9.40;;;3.20;;
12958;SDS011;6544;51.666;6.634;2022-12-07T14:16:32;11.27;;;3.20;;
12958;SDS011;6544;51.666;6.634;2022-12-07T14:19:01;8.95;;;3.03;;
12958;SDS011;6544;51.666;6.634;2022-12-07T14:21:33;8.87;;;2.90;;
12958;SDS011;6544;51.666;6.634;2022-12-07T14:24:16;12.65;;;2.80;;
12958;SDS011;6544;51.666;6.634;2022-12-07T14:26:44;6.87;;;2.67;;
12958;SDS011;6544;51.666;6.634;2022-12-07T14:29:31;10.27;;;2.93;;
12958;SDS011;6544;51.666;6.634;2022-12-07T14:32:12;9.20;;;3.23;;
12958;SDS011;6544;51.666;6.634;2022-12-07T14:34:52;13.03;;;3.33;;
12958;SDS011;6544;51.666;6.634;2022-12-07T14:37:25;8.00;;;2.90;;
12958;SDS011;6544;51.666;6.634;2022-12-07T14:39:52;8.93;;;2.87;;
12958;SDS011;6544;51.666;6.634;2022-12-07T14:42:19;10.30;;;3.20;;
12958;SDS011;6544;51.666;6.634;2022-12-07T14:44:49;8.90;;;2.97;;
12958;SDS011;6544;51.666;6.634;2022-12-07T14:47:15;9.33;;;3.20;;
12958;SDS011;6544;51.666;6.634;2022-12-07T14:49:42;10.70;;;3.40;;
12958;SDS011;6544;51.666;6.634;2022-12-07T14:52:11;8.93;;;3.23;;
12958;SDS011;6544;51.666;6.634;2022-12-07T14:54:43;9.95;;;3.30;;
12958;SDS011;6544;51.666;6.634;2022-12-07T14:57:10;9.10;;;3.30;;
12958;SDS011;6544;51.666;6.634;2022-12-07T14:59:37;10.23;;;3.05;;
12958;SDS011;6544;51.666;6.634;2022-12-07T15:02:08;8.50;;;3.38;;
12958;SDS011;6544;51.666;6.634;2022-12-07T15:04:40;10.77;;;3.55;;
12958;SDS011;6544;51.666;6.634;2022-12-07T15:07:09;8.57;;;3.88;;
12958;SDS011;6544;51.666;6.634;2022-12-07T15:09:41;8.80;;;3.17;;
12958;SDS011;6544;51.666;6.634;2022-12-07T15:12:09;7.68;;;3.33;;
12958;SDS011;6544;51.666;6.634;2022-12-07T15:14:36;14.38;;;3.88;;
12958;SDS011;6544;51.666;6.634;2022-12-07T15:17:03;11.48;;;3.88;;
12958;SDS011;6544;51.666;6.634;2022-12-07T15:19:30;9.63;;;4.03;;
12958;SDS011;6544;51.666;6.634;2022-12-07T15:21:57;11.55;;;3.90;;
12958;SDS011;6544;51.666;6.634;2022-12-07T15:24:25;11.13;;;4.28;;
12958;SDS011;6544;51.666;6.634;2022-12-07T15:26:52;9.20;;;3.53;;
12958;SDS011;6544;51.666;6.634;2022-12-07T15:29:22;7.60;;;3.97;;
12958;SDS011;6544;51.666;6.634;2022-12-07T15:31:49;9.00;;;4.63;;
12958;SDS011;6544;51.666;6.634;2022-12-07T15:34:16;10.25;;;4.00;;
12958;SDS011;6544;51.666;6.634;2022-12-07T15:36:43;7.13;;;3.30;;
12958;SDS011;6544;51.666;6.634;2022-12-07T15:39:12;8.07;;;3.70;;
12958;SDS011;6544;51.666;6.634;2022-12-07T15:41:40;10.13;;;4.22;;
12958;SDS011;6544;51.666;6.634;2022-12-07T15:44:08;12.13;;;4.97;;
12958;SDS011;6544;51.666;6.634;2022-12-07T15:46:56;12.07;;;4.53;;
12958;SDS011;6544;51.666;6.634;2022-12-07T15:49:23;14.60;;;5.85;;
12958;SDS011;6544;51.666;6.634;2022-12-07T15:51:50;11.60;;;6.27;;
12958;SDS011;6544;51.666;6.634;2022-12-07T15:54:18;10.57;;;5.23;;
12958;SDS011;6544;51.666;6.634;2022-12-07T15:56:47;7.57;;;4.30;;
12958;SDS011;6544;51.666;6.634;2022-12-07T15:59:14;8.33;;;3.63;;
12958;SDS011;6544;51.666;6.634;2022-12-07T16:01:41;5.38;;;3.20;;
12958;SDS011;6544;51.666;6.634;2022-12-07T16:04:09;9.07;;;3.90;;
12958;SDS011;6544;51.666;6.634;2022-12-07T16:06:37;7.38;;;3.70;;
12958;SDS011;6544;51.666;6.634;2022-12-07T16:09:04;9.80;;;4.10;;
12958;SDS011;6544;51.666;6.634;2022-12-07T16:11:31;11.57;;;4.60;;
12958;SDS011;6544;51.666;6.634;2022-12-07T16:13:58;8.57;;;3.75;;
12958;SDS011;6544;51.666;6.634;2022-12-07T16:16:25;7.45;;;4.32;;
12958;SDS011;6544;51.666;6.634;2022-12-07T16:18:52;12.00;;;4.67;;
12958;SDS011;6544;51.666;6.634;2022-12-07T16:21:21;11.10;;;4.70;;
12958;SDS011;6544;51.666;6.634;2022-12-07T16:23:48;9.33;;;4.20;;
12958;SDS011;6544;51.666;6.634;2022-12-07T16:26:16;7.37;;;4.37;;
12958;SDS011;6544;51.666;6.634;2022-12-07T16:28:47;11.17;;;5.00;;
12958;SDS011;6544;51.666;6.634;2022-12-07T16:31:16;9.53;;;4.53;;
12958;SDS011;6544;51.666;6.634;2022-12-07T16:33:44;9.87;;;4.30;;
12958;SDS011;6544;51.666;6.634;2022-12-07T16:36:13;8.03;;;4.20;;
12958;SDS011;6544;51.666;6.634;2022-12-07T16:38:42;8.90;;;4.63;;
12958;SDS011;6544;51.666;6.634;2022-12-07T16:41:10;9.73;;;5.00;;
12958;SDS011;6544;51.666;6.634;2022-12-07T16:43:37;11.17;;;5.70;;
12958;SDS011;6544;51.666;6.634;2022-12-07T16:46:04;9.40;;;5.00;;
12958;SDS011;6544;51.666;6.634;2022-12-07T16:48:35;8.67;;;4.40;;
12958;SDS011;6544;51.666;6.634;2022-12-07T16:51:04;7.00;;;3.50;;
12958;SDS011;6544;51.666;6.634;2022-12-07T16:53:33;6.77;;;3.60;;
12958;SDS011;6544;51.666;6.634;2022-12-07T16:56:02;8.60;;;4.17;;
12958;SDS011;6544;51.666;6.634;2022-12-07T16:58:30;6.40;;;4.00;;
12958;SDS011;6544;51.666;6.634;2022-12-07T17:00:58;6.63;;;4.07;;
12958;SDS011;6544;51.666;6.634;2022-12-07T17:03:24;10.10;;;5.60;;
12958;SDS011;6544;51.666;6.634;2022-12-07T17:05:51;14.27;;;7.20;;
12958;SDS011;6544;51.666;6.634;2022-12-07T17:08:18;21.53;;;8.27;;
12958;SDS011;6544;51.666;6.634;2022-12-07T17:10:45;31.63;;;12.30;;
12958;SDS011;6544;51.666;6.634;2022-12-07T17:13:13;18.87;;;8.03;;
12958;SDS011;6544;51.666;6.634;2022-12-07T17:15:58;10.47;;;5.30;;
12958;SDS011;6544;51.666;6.634;2022-12-07T17:18:27;19.43;;;11.20;;
12958;SDS011;6544;51.666;6.634;2022-12-07T17:20:54;17.00;;;10.47;;
12958;SDS011;6544;51.666;6.634;2022-12-07T17:23:22;17.17;;;8.90;;
12958;SDS011;6544;51.666;6.634;2022-12-07T17:25:51;8.03;;;4.90;;